Hazardville, Connecticut
Current Conditions -  °F | °C
As of 9:51 AM on Tuesday 21 Oct 2014 (Local Time) from KBDL Reporting Station
Overcast Overcast  
Wind Chill: 53°   Ceiling: 10000
Heat Index: 53°   Visibility: 10mi
Dew Point: 44°   Wind: 6mph
Humidity: 71%   Direction: 10°N
Pressure: 29.94"   Gusts: NA
Location:  41.9843°N, 72.5534°W
Report Text: KBDL 211351Z 01005KT 10SM FEW030 FEW055 BKN100 OVC200 12/07 A2994 RMK AO2 SLP139 T01170067
Loading
Personal Weather Stations






























Interactive Weather Map New forecast layout! Learn more

10-Day Weather Forecast

Advertisements
Track Severe Weather on mobile